Time;durP1;ratioP1;P1;durP2;ratioP2;P2;SDS_P1;SDS_P2;PMS_P1;PMS_P2;Temp;Humidity;BMP_temperature;BMP_pressure;BME280_temperature;BME280_humidity;BME280_pressure;Samples;Min_cycle;Max_cycle;Signal;HPM_P1;HPM_P2
2022/07/23 00:00:47;;;;;;;25.73;15.05;;;;;;;18.37;77.82;99452.41;5124485;27;20035;-57
2022/07/23 00:03:12;;;;;;;29.80;15.85;;;;;;;18.45;77.33;99450.97;5117441;27;20482;-54
2022/07/23 00:05:41;;;;;;;26.88;15.38;;;;;;;18.47;77.19;99459.63;5124680;27;20035;-56
2022/07/23 00:08:06;;;;;;;26.45;16.38;;;;;;;18.39;77.52;99460.25;5120357;27;20019;-57
2022/07/23 00:10:32;;;;;;;32.40;16.85;;;;;;;18.32;78.16;99463.31;5101292;28;20072;-57
2022/07/23 00:12:57;;;;;;;26.17;15.98;;;;;;;18.25;77.87;99455.53;5123024;27;20079;-57
2022/07/23 00:15:23;;;;;;;27.02;15.93;;;;;;;18.32;77.14;99444.31;5102878;27;20030;-57
2022/07/23 00:17:48;;;;;;;28.17;15.57;;;;;;;18.25;77.39;99455.53;5114353;27;20023;-56
2022/07/23 00:20:14;;;;;;;30.98;17.17;;;;;;;18.14;77.75;99464.84;5122027;27;20028;-56
2022/07/23 00:22:53;;;;;;;26.52;16.30;;;;;;;18.13;77.64;99463.25;5119122;27;20035;-56
2022/07/23 00:25:19;;;;;;;28.77;15.95;;;;;;;17.93;78.28;99464.25;5116201;27;20661;-56
2022/07/23 00:27:45;;;;;;;30.52;15.85;;;;;;;17.82;79.23;99468.97;5121539;27;20402;-57
2022/07/23 00:30:11;;;;;;;30.70;16.02;;;;;;;17.84;79.13;99472.16;5123696;27;20400;-55
2022/07/23 00:32:50;;;;;;;31.85;16.52;;;;;;;17.87;79.02;99463.50;5119485;27;20031;-55
2022/07/23 00:35:16;;;;;;;28.42;15.82;;;;;;;17.89;78.98;99474.03;5123172;27;20023;-56
2022/07/23 00:37:41;;;;;;;28.95;15.82;;;;;;;17.94;78.96;99465.84;5116162;27;20474;-56
2022/07/23 00:40:07;;;;;;;28.50;16.98;;;;;;;17.85;79.04;99473.81;5122119;27;20023;-55
2022/07/23 00:42:33;;;;;;;35.25;16.88;;;;;;;17.84;79.07;99465.94;5123795;27;20049;-55
2022/07/23 00:44:58;;;;;;;35.33;17.85;;;;;;;17.86;78.54;99464.56;5123559;27;20469;-55
2022/07/23 00:47:24;;;;;;;29.20;16.23;;;;;;;17.84;78.70;99469.47;5113874;27;20493;-55
2022/07/23 00:49:49;;;;;;;32.22;17.00;;;;;;;17.85;78.58;99464.88;5103218;28;20382;-56
2022/07/23 00:52:15;;;;;;;30.80;17.08;;;;;;;18.02;77.85;99465.25;5101559;28;20470;-55
2022/07/23 00:54:41;;;;;;;30.15;17.25;;;;;;;18.03;78.10;99457.91;5120077;27;20027;-56
2022/07/23 00:57:06;;;;;;;27.75;16.60;;;;;;;18.05;78.39;99461.97;5122992;27;20038;-55
2022/07/23 00:59:31;;;;;;;28.45;16.90;;;;;;;18.10;77.87;99458.41;5120946;27;20034;-56
2022/07/23 01:01:57;;;;;;;32.22;17.23;;;;;;;17.95;78.62;99464.78;5116188;27;20046;-55
2022/07/23 01:04:22;;;;;;;35.50;17.67;;;;;;;17.89;79.08;99457.75;5101016;28;20043;-55
2022/07/23 01:06:48;;;;;;;30.10;17.48;;;;;;;17.80;79.60;99454.06;5101532;28;20024;-56
2022/07/23 01:09:13;;;;;;;32.92;18.67;;;;;;;17.81;79.26;99445.63;5097663;28;20488;-56
2022/07/23 01:11:39;;;;;;;35.17;18.40;;;;;;;17.79;79.54;99447.78;5103618;28;20038;-55
2022/07/23 01:14:22;;;;;;;29.92;17.77;;;;;;;17.76;79.59;99447.56;5108099;28;20196;-55
2022/07/23 01:16:48;;;;;;;33.78;18.85;;;;;;;17.65;79.97;99441.44;5100995;28;20027;-56
2022/07/23 01:19:14;;;;;;;34.03;19.65;;;;;;;17.61;80.22;99429.53;5092362;28;20024;-55
2022/07/23 01:21:52;;;;;;;36.50;19.73;;;;;;;17.55;80.57;99430.66;5098840;28;20177;-55
2022/07/23 01:24:19;;;;;;;40.70;21.25;;;;;;;17.48;81.38;99432.88;5094888;28;20505;-56
2022/07/23 01:26:45;;;;;;;32.20;18.65;;;;;;;17.47;81.23;99440.19;5094425;28;20131;-56
2022/07/23 01:29:11;;;;;;;38.58;18.52;;;;;;;17.55;81.36;99439.59;5098459;28;20423;-55
2022/07/23 01:31:36;;;;;;;37.05;19.58;;;;;;;17.55;81.14;99434.19;5098985;28;20047;-56
2022/07/23 01:34:02;;;;;;;41.05;18.10;;;;;;;17.53;81.10;99438.28;5098358;28;20023;-56
2022/07/23 01:36:27;;;;;;;40.97;19.80;;;;;;;17.52;81.09;99436.63;5097010;28;20382;-56
2022/07/23 01:38:53;;;;;;;37.05;18.45;;;;;;;17.54;81.31;99429.84;5101628;28;20019;-56
2022/07/23 01:41:18;;;;;;;36.60;19.92;;;;;;;17.63;80.74;99432.75;5094680;28;20027;-56
2022/07/23 01:43:44;;;;;;;34.92;19.92;;;;;;;17.40;81.32;99423.47;5098918;28;20024;-56
2022/07/23 01:46:09;;;;;;;38.10;19.73;;;;;;;17.37;81.17;99424.84;5099267;28;20032;-56
2022/07/23 01:48:35;;;;;;;30.50;18.05;;;;;;;17.30;81.62;99424.34;5100858;28;20069;-56
2022/07/23 01:51:01;;;;;;;35.13;20.60;;;;;;;17.22;82.00;99422.22;5098063;28;20612;-57
2022/07/23 01:53:26;;;;;;;38.67;20.42;;;;;;;17.31;81.55;99425.97;5101542;28;20036;-56
2022/07/23 01:55:52;;;;;;;36.20;19.15;;;;;;;17.35;81.04;99432.44;5097102;28;20028;-56
2022/07/23 01:58:17;;;;;;;34.78;20.13;;;;;;;17.29;81.57;99438.16;5097672;28;20360;-55
2022/07/23 02:00:42;;;;;;;37.60;19.15;;;;;;;17.21;81.96;99436.88;5099082;28;20061;-55
2022/07/23 02:03:08;;;;;;;33.50;19.50;;;;;;;17.17;82.33;99433.09;5100139;28;20030;-56
2022/07/23 02:05:33;;;;;;;31.73;18.98;;;;;;;17.21;82.05;99429.53;5120080;28;20158;-55
2022/07/23 02:07:59;;;;;;;37.80;20.00;;;;;;;17.33;81.41;99433.81;5096937;28;20034;-56
2022/07/23 02:10:25;;;;;;;34.35;19.40;;;;;;;17.22;81.84;99424.94;5115657;28;20019;-56
2022/07/23 02:12:50;;;;;;;42.70;19.95;;;;;;;17.22;81.96;99424.94;5099652;28;20031;-56
2022/07/23 02:15:16;;;;;;;37.25;19.40;;;;;;;17.27;81.76;99430.31;5120906;28;20088;-55
2022/07/23 02:17:41;;;;;;;33.45;19.80;;;;;;;17.22;82.25;99433.06;5124023;28;20469;-56
2022/07/23 02:20:07;;;;;;;35.50;20.17;;;;;;;17.23;81.90;99424.66;5122372;28;20032;-55
2022/07/23 02:22:33;;;;;;;38.50;19.40;;;;;;;17.28;80.90;99412.97;5123126;28;20032;-55
2022/07/23 02:24:58;;;;;;;38.50;21.02;;;;;;;17.20;81.97;99427.13;5117391;28;20023;-56
2022/07/23 02:27:24;;;;;;;36.92;20.83;;;;;;;17.19;81.44;99422.78;5116978;28;20428;-55
2022/07/23 02:29:49;;;;;;;35.78;20.65;;;;;;;17.15;81.58;99427.97;5096535;28;20023;-56
2022/07/23 02:32:15;;;;;;;34.40;19.23;;;;;;;17.10;81.85;99421.75;5098604;28;20051;-56
2022/07/23 02:34:41;;;;;;;36.03;20.38;;;;;;;17.12;81.98;99428.50;5128169;28;20027;-55
2022/07/23 02:37:08;;;;;;;41.53;19.48;;;;;;;17.09;81.79;99436.41;5122819;28;20030;-55
2022/07/23 02:39:34;;;;;;;39.58;20.45;;;;;;;17.02;82.09;99440.25;5101964;28;20479;-56
2022/07/23 02:41:59;;;;;;;32.92;19.73;;;;;;;16.87;82.94;99437.59;5119958;28;20027;-56
2022/07/23 02:44:25;;;;;;;36.83;19.67;;;;;;;16.98;82.47;99441.06;5117921;28;20024;-56
2022/07/23 02:46:50;;;;;;;36.22;21.23;;;;;;;16.91;82.46;99437.84;5099963;28;20039;-56
2022/07/23 02:49:15;;;;;;;41.78;22.60;;;;;;;16.85;82.74;99434.38;5123223;28;20043;-56
2022/07/23 02:51:41;;;;;;;42.05;21.17;;;;;;;16.78;83.07;99437.38;5097256;28;20031;-57
2022/07/23 02:54:06;;;;;;;43.70;22.70;;;;;;;16.67;83.53;99427.63;5124469;27;20046;-56
2022/07/23 02:56:32;;;;;;;44.08;22.75;;;;;;;16.53;84.34;99427.44;5122055;27;20023;-56
2022/07/23 02:58:57;;;;;;;46.55;22.17;;;;;;;16.58;84.02;99427.41;5116090;27;20461;-55
2022/07/23 03:01:22;;;;;;;36.53;21.55;;;;;;;16.63;84.07;99428.50;5102836;28;20023;-56
2022/07/23 03:03:48;;;;;;;39.92;21.92;;;;;;;16.53;84.24;99432.84;5120787;27;20031;-56
2022/07/23 03:06:13;;;;;;;44.88;22.52;;;;;;;16.53;83.84;99426.66;5122259;27;20031;-56
2022/07/23 03:08:39;;;;;;;42.03;21.95;;;;;;;16.45;84.23;99425.31;5119006;27;20030;-56
2022/07/23 03:11:07;;;;;;;52.08;23.38;;;;;;;16.48;83.80;99435.59;5123185;27;20031;-56
2022/07/23 03:13:33;;;;;;;48.55;24.50;;;;;;;16.48;83.90;99435.59;5105772;27;20148;-55
2022/07/23 03:15:58;;;;;;;47.67;24.48;;;;;;;16.43;84.50;99441.00;5106013;27;20024;-56
2022/07/23 03:18:24;;;;;;;45.17;23.35;;;;;;;16.39;84.57;99438.03;5127073;27;20433;-56
2022/07/23 03:20:49;;;;;;;42.10;23.27;;;;;;;16.38;84.48;99439.13;5117440;27;20027;-57
2022/07/23 03:23:16;;;;;;;43.00;24.17;;;;;;;16.28;85.07;99449.19;5120292;27;20035;-55
2022/07/23 03:25:41;;;;;;;44.28;24.73;;;;;;;16.25;85.57;99442.41;5126186;27;20037;-57
2022/07/23 03:28:07;;;;;;;48.35;25.30;;;;;;;16.29;85.09;99437.25;5125748;27;20027;-59
2022/07/23 03:30:32;;;;;;;50.80;25.83;;;;;;;16.23;85.25;99438.38;5118025;27;20023;-60
2022/07/23 03:32:58;;;;;;;48.15;26.33;;;;;;;16.29;84.91;99434.56;5122943;27;20033;-56
2022/07/23 03:35:23;;;;;;;53.40;26.38;;;;;;;16.26;85.31;99443.22;5124153;27;20054;-56
2022/07/23 03:37:49;;;;;;;45.03;24.77;;;;;;;16.29;84.49;99432.66;5119834;27;20020;-56
2022/07/23 03:40:14;;;;;;;41.22;23.70;;;;;;;16.26;85.21;99437.81;5121890;27;20027;-56
2022/07/23 03:42:41;;;;;;;43.13;23.15;;;;;;;16.25;84.83;99438.88;5119376;27;20482;-56
2022/07/23 03:45:07;;;;;;;45.50;24.20;;;;;;;16.10;85.86;99437.84;5124348;27;20024;-55
2022/07/23 03:47:33;;;;;;;47.15;25.00;;;;;;;16.15;85.45;99440.56;5100759;27;20026;-56
2022/07/23 03:49:58;;;;;;;46.28;24.73;;;;;;;16.07;85.93;99443.00;5121333;27;20031;-55
2022/07/23 03:52:24;;;;;;;46.75;24.38;;;;;;;16.04;86.46;99438.94;5101270;27;20027;-55
2022/07/23 03:54:49;;;;;;;43.50;24.83;;;;;;;15.97;86.98;99443.81;5122091;27;20023;-56
2022/07/23 03:57:14;;;;;;;44.35;24.17;;;;;;;15.94;87.40;99441.66;5120211;27;20105;-56
2022/07/23 03:59:40;;;;;;;44.45;23.70;;;;;;;15.98;87.25;99444.66;5128864;27;20019;-55
2022/07/23 04:02:05;;;;;;;48.03;23.23;;;;;;;15.92;87.52;99449.22;5123139;27;20073;-55
2022/07/23 04:04:31;;;;;;;46.20;25.33;;;;;;;15.98;87.49;99469.78;5119373;27;20092;-56
2022/07/23 04:06:56;;;;;;;57.40;27.38;;;;;;;15.97;87.64;99476.25;5121290;27;20027;-56
2022/07/23 04:09:21;;;;;;;52.70;26.50;;;;;;;16.06;86.78;99477.31;5102288;27;20160;-55
2022/07/23 04:11:47;;;;;;;52.92;27.42;;;;;;;16.16;85.71;99474.59;5121344;27;20076;-55
2022/07/23 04:14:12;;;;;;;37.90;22.77;;;;;;;16.30;86.47;99477.56;5124080;27;20027;-56
2022/07/23 04:16:38;;;;;;;48.83;27.27;;;;;;;16.22;85.44;99480.00;5102709;27;20952;-55
2022/07/23 04:19:04;;;;;;;46.20;25.70;;;;;;;16.46;84.55;99475.63;5129644;27;20030;-55
2022/07/23 04:21:29;;;;;;;51.40;26.20;;;;;;;16.48;83.92;99468.03;5122906;27;20025;-55
2022/07/23 04:23:55;;;;;;;45.00;25.15;;;;;;;16.53;84.42;99465.31;5105280;27;20020;-55
2022/07/23 04:26:21;;;;;;;44.28;24.75;;;;;;;16.64;83.36;99459.88;5122311;27;20077;-55
2022/07/23 04:28:46;;;;;;;47.70;25.52;;;;;;;16.58;84.25;99467.19;5096230;28;20023;-55
2022/07/23 04:31:12;;;;;;;48.38;27.40;;;;;;;16.80;83.13;99469.59;5116795;27;20059;-56
2022/07/23 04:33:37;;;;;;;43.80;26.02;;;;;;;17.26;80.95;99472.03;5120961;27;20035;-56
2022/07/23 04:36:03;;;;;;;53.40;25.42;;;;;;;17.82;77.76;99471.66;5126300;27;20394;-55
2022/07/23 04:38:28;;;;;;;41.97;26.02;;;;;;;17.56;78.81;99465.59;5119427;27;20031;-56
2022/07/23 04:40:54;;;;;;;46.53;25.75;;;;;;;18.01;77.52;99477.19;5122674;27;20534;-55
2022/07/23 04:43:19;;;;;;;56.28;26.88;;;;;;;18.02;77.20;99486.94;5119605;27;20442;-55
2022/07/23 04:45:45;;;;;;;49.33;26.23;;;;;;;18.41;75.70;99496.06;5119979;27;20045;-56
2022/07/23 04:48:10;;;;;;;51.53;26.67;;;;;;;18.99;73.64;99495.94;5098283;27;20020;-56
2022/07/23 04:50:35;;;;;;;51.85;24.88;;;;;;;19.80;70.21;99502.13;5123029;27;20073;-56
2022/07/23 04:53:01;;;;;;;51.63;26.13;;;;;;;19.26;71.28;99492.59;5112916;27;20477;-56
2022/07/23 04:55:26;;;;;;;51.58;26.00;;;;;;;19.18;71.41;99487.81;5125542;27;20038;-56
2022/07/23 04:57:52;;;;;;;46.88;25.88;;;;;;;19.12;72.21;99491.69;5123449;27;20035;-56
2022/07/23 05:00:17;;;;;;;46.35;25.88;;;;;;;18.92;72.97;99485.44;5120702;27;20034;-55
2022/07/23 05:02:43;;;;;;;45.42;25.20;;;;;;;19.07;72.88;99487.16;5102373;27;20031;-56
2022/07/23 05:05:08;;;;;;;48.88;27.25;;;;;;;19.67;70.66;99488.44;5120844;27;20093;-56
2022/07/23 05:07:34;;;;;;;50.60;25.60;;;;;;;21.73;63.40;99486.88;5116864;27;20418;-55
2022/07/23 05:09:59;;;;;;;45.97;25.77;;;;;;;20.75;66.43;99493.66;5123420;27;20537;-55
2022/07/23 05:12:24;;;;;;;46.53;25.48;;;;;;;21.17;64.54;99502.56;5124625;27;20027;-56
2022/07/23 05:14:50;;;;;;;45.00;24.38;;;;;;;22.02;61.17;99499.25;5118584;27;20032;-56
2022/07/23 05:17:15;;;;;;;42.17;24.75;;;;;;;22.63;59.91;99505.03;5120343;27;20023;-55
2022/07/23 05:19:41;;;;;;;42.40;23.45;;;;;;;22.86;58.97;99506.53;5118062;27;20362;-56
2022/07/23 05:22:06;;;;;;;50.25;24.92;;;;;;;21.97;61.35;99503.72;5120929;27;20488;-56
2022/07/23 05:24:32;;;;;;;44.40;24.70;;;;;;;22.16;61.60;99502.69;5121181;27;20040;-55
2022/07/23 05:26:57;;;;;;;40.88;22.90;;;;;;;22.85;59.36;99491.28;5098163;28;20035;-56
2022/07/23 05:29:22;;;;;;;42.25;24.10;;;;;;;24.24;54.96;99502.25;5117338;27;20035;-56
2022/07/23 05:31:48;;;;;;;40.58;23.30;;;;;;;23.60;55.94;99499.44;5121606;27;20039;-56
2022/07/23 05:34:13;;;;;;;44.67;24.30;;;;;;;23.63;56.27;99498.78;5117668;27;20039;-55
2022/07/23 05:36:39;;;;;;;43.88;25.08;;;;;;;24.05;55.67;99504.56;5116051;28;20016;-55
2022/07/23 05:39:04;;;;;;;42.53;24.42;;;;;;;22.63;59.13;99508.56;5115326;27;20043;-56
2022/07/23 05:41:30;;;;;;;43.58;23.67;;;;;;;22.39;59.72;99503.50;5120556;27;20051;-56
2022/07/23 05:43:55;;;;;;;39.53;23.42;;;;;;;21.85;62.11;99514.41;5118628;27;20031;-55
2022/07/23 05:46:20;;;;;;;44.03;24.15;;;;;;;21.97;61.88;99524.75;5127820;27;20027;-55
2022/07/23 05:48:49;;;;;;;42.00;22.70;;;;;;;23.64;57.42;99520.38;5105202;28;20027;-55
2022/07/23 05:51:19;;;;;;;40.50;21.65;;;;;;;23.78;55.92;99531.16;5099075;28;20030;-55
2022/07/23 05:53:45;;;;;;;43.08;22.13;;;;;;;22.82;58.22;99539.19;5102804;28;20481;-56
2022/07/23 05:56:10;;;;;;;40.63;22.50;;;;;;;21.63;62.22;99541.66;5119891;28;20079;-56
2022/07/23 05:58:35;;;;;;;46.58;24.17;;;;;;;20.61;65.33;99541.84;5121275;28;20026;-56
2022/07/23 06:01:01;;;;;;;48.92;25.23;;;;;;;22.36;60.87;99545.06;5119750;28;20583;-56
2022/07/23 06:03:26;;;;;;;47.38;25.33;;;;;;;22.16;61.37;99530.00;5106943;28;20500;-55
2022/07/23 06:05:52;;;;;;;41.45;23.02;;;;;;;22.42;60.22;99543.84;5122643;28;20035;-56
2022/07/23 06:08:17;;;;;;;45.97;23.67;;;;;;;23.14;58.31;99533.66;5121594;28;20747;-56
2022/07/23 06:10:43;;;;;;;41.95;23.77;;;;;;;22.78;58.99;99538.19;5119554;28;20035;-56
2022/07/23 06:13:08;;;;;;;45.33;22.38;;;;;;;24.49;53.81;99536.22;5118796;28;20032;-56
2022/07/23 06:15:34;;;;;;;42.78;23.33;;;;;;;23.94;54.45;99545.16;5117918;28;20027;-56
2022/07/23 06:17:59;;;;;;;42.88;22.20;;;;;;;23.18;56.86;99546.38;5122314;28;20028;-55
2022/07/23 06:20:24;;;;;;;39.78;22.67;;;;;;;22.18;59.62;99549.59;5120392;28;20031;-55
2022/07/23 06:22:50;;;;;;;43.88;21.63;;;;;;;22.61;59.18;99543.59;5114714;28;20457;-55
2022/07/23 06:25:16;;;;;;;46.03;23.13;;;;;;;21.00;62.98;99548.72;5117783;28;20027;-55
2022/07/23 06:27:41;;;;;;;47.30;23.13;;;;;;;21.11;64.11;99542.75;5126540;27;20068;-55
2022/07/23 06:30:08;;;;;;;50.88;22.83;;;;;;;22.26;60.67;99542.59;5127047;27;20023;-55
2022/07/23 06:32:33;;;;;;;43.38;21.05;;;;;;;23.86;54.96;99546.78;5108098;27;20027;-55
2022/07/23 06:34:58;;;;;;;33.50;18.67;;;;;;;25.39;50.46;99553.50;5118730;27;20031;-55
2022/07/23 06:37:24;;;;;;;36.50;19.15;;;;;;;23.75;54.40;99547.44;5116141;27;20032;-56
2022/07/23 06:39:49;;;;;;;34.42;18.83;;;;;;;23.57;54.41;99546.59;5121355;27;20023;-56
2022/07/23 06:42:15;;;;;;;34.63;18.10;;;;;;;23.64;54.33;99547.72;5099910;27;20027;-56
2022/07/23 06:44:40;;;;;;;47.35;18.80;;;;;;;25.11;50.96;99562.22;5101715;28;20489;-55
2022/07/23 06:47:06;;;;;;;35.63;17.98;;;;;;;25.64;49.83;99564.63;5124982;27;20031;-55
2022/07/23 06:49:31;;;;;;;28.83;15.32;;;;;;;24.32;51.75;99556.19;5101289;27;20465;-56
2022/07/23 06:51:57;;;;;;;26.88;15.13;;;;;;;24.51;51.09;99571.47;5123166;27;20031;-55
2022/07/23 06:54:22;;;;;;;34.88;16.00;;;;;;;23.29;54.46;99568.78;5102226;28;20055;-54
2022/07/23 06:56:48;;;;;;;32.33;16.30;;;;;;;22.98;55.69;99575.09;5122407;27;20023;-56
2022/07/23 06:59:14;;;;;;;30.55;15.65;;;;;;;23.23;54.93;99583.69;5108018;27;20142;-56
2022/07/23 07:01:39;;;;;;;31.17;17.08;;;;;;;24.03;53.00;99587.00;5123144;27;20032;-56
2022/07/23 07:04:05;;;;;;;27.50;16.05;;;;;;;24.80;51.18;99586.38;5125147;27;20055;-56
2022/07/23 07:06:30;;;;;;;31.75;16.85;;;;;;;25.04;49.80;99597.56;5124895;27;20023;-56
2022/07/23 07:08:56;;;;;;;33.55;16.73;;;;;;;24.97;50.96;99600.03;5122162;27;20028;-55
2022/07/23 07:11:23;;;;;;;33.95;15.40;;;;;;;26.50;46.24;99600.69;5127286;27;20054;-55
2022/07/23 07:13:49;;;;;;;29.77;15.30;;;;;;;27.74;44.03;99592.94;5107900;27;20118;-56
2022/07/23 07:16:14;;;;;;;32.15;16.13;;;;;;;26.96;44.63;99591.28;5107509;27;20039;-55
2022/07/23 07:18:40;;;;;;;26.90;13.88;;;;;;;26.04;46.20;99609.69;5122718;27;20023;-55
2022/07/23 07:21:05;;;;;;;26.58;13.40;;;;;;;26.59;44.92;99604.19;5124705;27;20027;-55
2022/07/23 07:23:30;;;;;;;25.50;13.13;;;;;;;26.90;45.07;99609.16;5109865;28;20477;-55
2022/07/23 07:25:56;;;;;;;22.60;11.32;;;;;;;29.15;39.96;99614.03;5122940;27;20027;-56
2022/07/23 07:28:21;;;;;;;24.77;11.95;;;;;;;27.56;42.24;99608.13;5121675;27;20394;-56
2022/07/23 07:30:47;;;;;;;21.25;12.38;;;;;;;28.34;41.73;99615.09;5121268;27;20378;-55
2022/07/23 07:33:12;;;;;;;31.95;13.63;;;;;;;26.75;44.04;99607.88;5122353;27;20027;-56
2022/07/23 07:35:37;;;;;;;27.52;13.30;;;;;;;27.88;41.97;99611.84;5124391;27;20052;-56
2022/07/23 07:38:03;;;;;;;23.00;12.93;;;;;;;27.88;42.09;99609.09;5123520;27;20422;-55
2022/07/23 07:40:28;;;;;;;21.88;12.52;;;;;;;27.12;42.22;99610.66;5125488;27;20027;-56
2022/07/23 07:42:56;;;;;;;29.52;12.63;;;;;;;25.61;45.94;99624.53;5122497;27;20027;-56
2022/07/23 07:45:22;;;;;;;23.40;12.73;;;;;;;24.37;49.55;99618.22;5119985;27;20055;-55
2022/07/23 07:47:48;;;;;;;23.60;12.63;;;;;;;23.64;51.67;99624.34;5125121;27;20080;-56
2022/07/23 07:50:13;;;;;;;26.58;12.10;;;;;;;25.25;47.19;99619.59;5116229;27;20563;-55
2022/07/23 07:52:39;;;;;;;24.05;12.38;;;;;;;25.93;45.96;99621.41;5117239;27;20054;-55
2022/07/23 07:55:05;;;;;;;27.20;11.65;;;;;;;26.32;44.95;99628.34;5121021;27;20027;-55
2022/07/23 07:57:30;;;;;;;20.52;12.00;;;;;;;26.20;44.28;99631.84;5120355;27;20024;-55
2022/07/23 07:59:56;;;;;;;23.77;12.07;;;;;;;24.60;46.39;99634.50;5108317;27;20068;-55
2022/07/23 08:02:21;;;;;;;22.20;11.93;;;;;;;24.21;48.67;99626.16;5123484;27;20076;-55
2022/07/23 08:04:48;;;;;;;25.73;12.18;;;;;;;26.69;44.08;99633.97;5117728;27;20062;-55
2022/07/23 08:07:14;;;;;;;24.95;11.23;;;;;;;28.01;41.76;99631.91;5116084;27;20506;-55
2022/07/23 08:09:39;;;;;;;22.23;12.32;;;;;;;27.86;40.64;99638.94;5121327;27;20027;-57
2022/07/23 08:12:05;;;;;;;21.40;10.60;;;;;;;26.35;44.26;99630.41;5093658;28;20119;-55
2022/07/23 08:14:30;;;;;;;25.05;10.50;;;;;;;25.61;45.43;99637.47;5097111;27;20091;-54
2022/07/23 08:16:56;;;;;;;23.35;11.60;;;;;;;23.74;50.04;99626.00;5120685;27;20381;-56
2022/07/23 08:19:22;;;;;;;23.88;11.25;;;;;;;24.26;48.11;99644.31;5123921;27;20367;-55
2022/07/23 08:21:47;;;;;;;24.75;9.27;;;;;;;24.68;46.87;99634.44;5117549;27;20381;-55
2022/07/23 08:24:12;;;;;;;24.38;10.77;;;;;;;23.38;49.12;99632.47;5115973;27;20381;-54
2022/07/23 08:26:38;;;;;;;25.80;8.65;;;;;;;24.79;47.64;99628.63;5125302;27;20375;-55
2022/07/23 08:29:03;;;;;;;20.83;8.60;;;;;;;23.74;49.75;99636.94;5118435;27;20027;-54
2022/07/23 08:31:29;;;;;;;17.80;9.30;;;;;;;23.90;47.33;99638.06;5124946;27;20019;-54
2022/07/23 08:33:54;;;;;;;20.55;9.18;;;;;;;23.55;49.38;99626.25;5101303;27;20047;-54
2022/07/23 08:36:20;;;;;;;30.13;9.63;;;;;;;25.51;43.76;99632.34;5123899;27;20088;-54
2022/07/23 08:38:45;;;;;;;20.50;8.05;;;;;;;26.29;43.01;99633.72;5119999;27;20023;-55
2022/07/23 08:41:11;;;;;;;10.43;6.53;;;;;;;27.65;40.29;99632.75;5119592;27;20373;-55
2022/07/23 08:43:36;;;;;;;9.65;5.80;;;;;;;27.55;38.64;99645.03;5100946;27;20023;-54
2022/07/23 08:46:02;;;;;;;16.45;7.10;;;;;;;25.49;43.11;99640.91;5124262;27;20369;-54
2022/07/23 08:48:32;;;;;;;18.05;8.07;;;;;;;25.98;42.93;99643.97;5103782;27;20057;-55
2022/07/23 08:50:58;;;;;;;;;;;;;;;24.93;45.64;99645.66;5119105;27;20031;-54
2022/07/23 08:53:24;;;;;;;17.88;7.00;;;;;;;26.11;42.89;99639.38;5123267;27;19923;-55
2022/07/23 08:55:51;;;;;;;20.35;8.90;;;;;;;25.14;45.65;99646.56;5119792;27;20031;-55
2022/07/23 08:58:17;;;;;;;17.02;8.63;;;;;;;24.14;47.14;99636.78;5125448;27;21427;-55
2022/07/23 09:00:42;;;;;;;14.77;8.18;;;;;;;25.40;45.11;99646.44;5121143;27;20381;-56
2022/07/23 09:03:15;;;;;;;15.80;7.88;;;;;;;25.07;45.18;99642.72;5104829;28;20115;-55
2022/07/23 09:05:41;;;;;;;20.65;8.40;;;;;;;24.78;45.32;99643.47;5099195;27;20384;-55
2022/07/23 09:08:14;;;;;;;16.10;8.40;;;;;;;26.29;43.61;99647.47;5122997;27;20027;-56
2022/07/23 09:10:45;;;;;;;19.48;8.23;;;;;;;26.75;42.27;99646.34;5100761;27;20030;-56
2022/07/23 09:13:31;;;;;;;12.90;7.55;;;;;;;25.87;44.78;99640.03;5114428;27;20027;-55
2022/07/23 09:16:00;;;;;;;14.60;7.15;;;;;;;25.73;43.23;99644.94;5096275;27;20126;-55
2022/07/23 09:18:37;;;;;;;13.63;8.45;;;;;;;25.83;43.99;99639.06;5118073;27;20026;-55
2022/07/23 09:21:34;;;;;;;15.82;8.07;;;;;;;27.62;41.41;99642.50;5108184;27;20061;-55
2022/07/23 09:24:07;;;;;;;25.50;8.38;;;;;;;26.38;42.06;99640.72;5115762;27;20043;-54
2022/07/23 09:26:49;;;;;;;22.20;9.90;;;;;;;25.33;45.20;99648.91;5118429;27;20019;-55
2022/07/23 09:29:22;;;;;;;18.70;8.95;;;;;;;26.12;43.42;99651.97;5112905;27;20027;-56
2022/07/23 09:31:48;;;;;;;15.50;8.48;;;;;;;27.44;41.19;99647.47;5123408;27;20023;-56
2022/07/23 09:34:43;;;;;;;17.20;7.68;;;;;;;28.25;39.94;99643.97;5126096;27;20031;-55
2022/07/23 09:37:13;;;;;;;13.93;7.32;;;;;;;28.18;39.05;99645.38;5123325;27;20050;-55
2022/07/23 09:39:39;;;;;;;16.55;7.63;;;;;;;28.59;38.72;99648.88;5122385;27;20027;-55
2022/07/23 09:42:20;;;;;;;15.02;7.45;;;;;;;28.64;38.28;99644.28;5120057;28;20039;-55
2022/07/23 09:44:52;;;;;;;15.32;8.50;;;;;;;27.99;39.30;99645.22;5114594;27;20024;-55
2022/07/23 09:47:18;;;;;;;15.50;8.23;;;;;;;28.25;39.61;99647.50;5114246;27;20040;-54
2022/07/23 09:50:06;;;;;;;13.75;8.48;;;;;;;26.93;40.07;99649.69;5124502;27;20023;-55
2022/07/23 09:52:36;;;;;;;30.55;8.27;;;;;;;27.99;39.47;99642.47;5118852;28;20070;-55
2022/07/23 09:55:05;;;;;;;19.13;7.47;;;;;;;26.47;41.84;99643.41;5117390;28;20034;-55
2022/07/23 09:57:33;;;;;;;14.57;8.13;;;;;;;27.94;39.56;99646.25;5120409;28;20461;-55
2022/07/23 10:00:01;;;;;;;15.77;7.85;;;;;;;27.90;39.39;99650.06;5113397;28;20069;-54
2022/07/23 10:02:27;;;;;;;18.25;9.60;;;;;;;27.97;38.75;99650.25;5121427;27;20473;-55
2022/07/23 10:04:54;;;;;;;17.42;8.65;;;;;;;26.55;41.06;99649.97;5133077;27;20043;-55
2022/07/23 10:07:19;;;;;;;17.58;8.15;;;;;;;25.40;43.55;99648.38;5120280;27;20027;-54
2022/07/23 10:09:45;;;;;;;16.42;7.72;;;;;;;26.33;42.91;99651.13;5095773;27;20377;-55
2022/07/23 10:14:38;;;;;;;11.85;7.28;;;;;;;27.83;39.50;99641.56;5123291;27;20039;-56
2022/07/23 10:17:04;;;;;;;16.65;7.45;;;;;;;27.77;38.81;99637.44;5125964;27;20020;-54
2022/07/23 10:19:30;;;;;;;18.92;7.55;;;;;;;28.38;37.41;99649.09;5090396;28;20098;-55
2022/07/23 10:22:00;;;;;;;12.52;7.28;;;;;;;26.85;40.79;99640.41;5105134;27;20044;-55
2022/07/23 10:24:50;;;;;;;16.58;7.68;;;;;;;26.05;41.48;99643.44;5124839;27;20469;-55
2022/07/23 10:27:49;;;;;;;19.33;8.65;;;;;;;25.37;42.41;99635.34;5103437;28;20147;-54
2022/07/23 10:30:25;;;;;;;13.80;7.30;;;;;;;27.02;41.33;99635.84;5121027;27;20031;-55
2022/07/23 10:33:02;;;;;;;12.13;6.88;;;;;;;27.80;39.72;99634.00;5104227;27;20112;-55
2022/07/23 10:35:46;;;;;;;16.13;7.40;;;;;;;27.92;38.17;99633.97;5123368;27;20562;-55
2022/07/23 10:38:24;;;;;;;15.25;7.00;;;;;;;27.37;38.72;99635.44;5105167;27;20452;-55
2022/07/23 10:41:01;;;;;;;12.85;7.03;;;;;;;26.18;40.98;99633.31;5114889;27;20038;-55
2022/07/23 10:43:27;;;;;;;14.00;6.28;;;;;;;28.15;38.11;99624.00;5126617;27;20496;-55
2022/07/23 10:45:52;;;;;;;12.27;6.65;;;;;;;27.58;38.52;99622.31;5119883;27;20031;-55
2022/07/23 10:48:18;;;;;;;12.75;7.10;;;;;;;27.07;39.27;99630.13;5128825;27;20047;-54
2022/07/23 10:50:45;;;;;;;13.60;6.80;;;;;;;25.45;41.91;99626.25;5107775;28;20024;-54
2022/07/23 10:53:13;;;;;;;19.83;6.63;;;;;;;26.69;40.41;99614.75;5088623;27;20027;-55
2022/07/23 10:55:40;;;;;;;12.98;6.65;;;;;;;26.94;39.68;99615.56;5120850;27;20473;-54
2022/07/23 10:58:06;;;;;;;15.98;6.95;;;;;;;26.10;40.88;99614.97;5124475;27;20544;-54
2022/07/23 11:00:32;;;;;;;13.40;7.20;;;;;;;25.12;42.63;99618.66;5112020;27;20102;-55
2022/07/23 11:02:59;;;;;;;12.20;6.60;;;;;;;25.13;42.33;99614.75;5121024;27;20030;-54
2022/07/23 11:05:38;;;;;;;9.98;6.00;;;;;;;27.03;40.05;99612.69;5128198;27;20485;-55
2022/07/23 11:08:04;;;;;;;17.65;6.28;;;;;;;27.68;38.27;99610.84;5118625;27;20390;-55
2022/07/23 11:10:39;;;;;;;12.63;6.95;;;;;;;27.82;38.02;99609.69;5126421;27;20023;-55
2022/07/23 11:13:23;;;;;;;16.73;6.40;;;;;;;27.77;37.70;99616.22;5100816;28;20062;-55
2022/07/23 11:16:01;;;;;;;14.38;6.53;;;;;;;27.75;38.11;99611.03;5119702;27;20374;-55
2022/07/23 11:18:42;;;;;;;12.63;6.60;;;;;;;28.10;37.67;99618.75;5122379;27;20024;-55
2022/07/23 11:21:31;;;;;;;13.80;6.45;;;;;;;28.14;37.51;99616.91;5131588;27;20031;-55